createdAt,value
2022-10-16T00:01:24.751Z,100707.13
2022-10-16T00:03:51.593Z,100708.81
2022-10-16T00:06:20.182Z,100711.31
2022-10-16T00:08:47.101Z,100703.78
2022-10-16T00:11:26.789Z,100710.47
2022-10-16T00:13:58.126Z,100714.84
2022-10-16T00:16:25.292Z,100708.63
2022-10-16T00:18:51.801Z,100702.09
2022-10-16T00:21:21.036Z,100716.72
2022-10-16T00:23:47.781Z,100711.50
2022-10-16T00:26:17.020Z,100723.41
2022-10-16T00:28:43.642Z,100719.03
2022-10-16T00:31:12.398Z,100723.19
2022-10-16T00:33:40.649Z,100717.00
2022-10-16T00:36:08.965Z,100715.97
2022-10-16T00:38:35.445Z,100739.84
2022-10-16T00:41:01.911Z,100735.13
2022-10-16T00:43:45.035Z,100732.59
2022-10-16T00:46:22.048Z,100727.88
2022-10-16T00:49:05.368Z,100732.25
2022-10-16T00:51:35.851Z,100737.28
2022-10-16T00:54:06.036Z,100721.34
2022-10-16T00:56:32.722Z,100738.34
2022-10-16T00:59:02.114Z,100730.91
2022-10-16T01:01:29.330Z,100733.44
2022-10-16T01:03:55.758Z,100740.50
2022-10-16T01:06:44.425Z,100740.50
2022-10-16T01:09:49.364Z,100744.88
2022-10-16T01:12:22.021Z,100753.53
2022-10-16T01:15:12.614Z,100762.28
2022-10-16T01:17:48.099Z,100756.75
2022-10-16T01:20:17.471Z,100757.50
2022-10-16T01:22:59.926Z,100756.81
2022-10-16T01:26:07.606Z,100749.41
2022-10-16T01:28:40.842Z,100756.38
2022-10-16T01:31:10.549Z,100757.59
2022-10-16T01:33:43.193Z,100755.06
2022-10-16T01:36:32.655Z,100755.25
2022-10-16T01:39:02.738Z,100758.44
2022-10-16T01:41:34.288Z,100741.53
2022-10-16T01:44:09.413Z,100750.75
2022-10-16T01:46:39.529Z,100757.81
2022-10-16T01:49:07.400Z,100755.47
2022-10-16T01:51:36.292Z,100749.94
2022-10-16T01:54:03.527Z,100758.22
2022-10-16T01:56:30.659Z,100751.50
2022-10-16T01:59:05.657Z,100757.72
2022-10-16T02:01:36.217Z,100756.56
2022-10-16T02:04:08.733Z,100754.38
2022-10-16T02:06:35.797Z,100756.44
2022-10-16T02:09:02.382Z,100768.81
2022-10-16T02:11:28.814Z,100753.09
2022-10-16T02:14:08.331Z,100771.03
2022-10-16T02:16:38.477Z,100760.47
2022-10-16T02:19:06.224Z,100752.91
2022-10-16T02:21:45.294Z,100758.13
2022-10-16T02:24:37.453Z,100762.47
2022-10-16T02:27:25.453Z,100768.19
2022-10-16T02:29:59.659Z,100769.25
2022-10-16T02:32:32.669Z,100759.34
2022-10-16T02:35:01.085Z,100772.09
2022-10-16T02:37:28.592Z,100769.59
2022-10-16T02:39:56.725Z,100751.31
2022-10-16T02:42:29.099Z,100755.34
2022-10-16T02:44:55.439Z,100770.44
2022-10-16T02:47:21.833Z,100775.16
2022-10-16T02:49:48.181Z,100773.81
2022-10-16T02:52:14.532Z,100760.22
2022-10-16T02:54:40.894Z,100767.28
2022-10-16T02:57:07.287Z,100779.03
2022-10-16T02:59:33.839Z,100769.47
2022-10-16T03:02:00.215Z,100769.81
2022-10-16T03:04:26.646Z,100771.34
2022-10-16T03:06:53.023Z,100773.34
2022-10-16T03:09:19.383Z,100766.00
2022-10-16T03:11:45.764Z,100773.38
2022-10-16T03:14:12.280Z,100773.03
2022-10-16T03:16:38.680Z,100748.22
2022-10-16T03:19:05.120Z,100760.25
2022-10-16T03:21:31.462Z,100736.28
2022-10-16T03:23:57.830Z,100761.63
2022-10-16T03:26:27.076Z,100755.53
2022-10-16T03:28:53.604Z,100753.22
2022-10-16T03:31:20.109Z,100778.56
2022-10-16T03:33:46.497Z,100773.66
2022-10-16T03:36:12.966Z,100753.22
2022-10-16T03:38:39.485Z,100763.63
2022-10-16T03:41:06.266Z,100766.97
2022-10-16T03:43:32.634Z,100767.47
2022-10-16T03:45:58.971Z,100764.44
2022-10-16T03:48:25.433Z,100770.50
2022-10-16T03:50:52.655Z,100768.97
2022-10-16T03:53:19.085Z,100776.72
2022-10-16T03:55:45.635Z,100773.19
2022-10-16T03:58:12.670Z,100786.44
2022-10-16T04:00:43.728Z,100781.09
2022-10-16T04:03:10.938Z,100788.59
2022-10-16T04:05:38.140Z,100787.75
2022-10-16T04:08:04.875Z,100799.50
2022-10-16T04:10:31.343Z,100799.19
2022-10-16T04:12:57.735Z,100812.97
2022-10-16T04:15:24.685Z,100817.50
2022-10-16T04:17:51.520Z,100815.66
2022-10-16T04:20:18.059Z,100823.53
2022-10-16T04:22:44.602Z,100814.47
2022-10-16T04:25:12.218Z,100811.78
2022-10-16T04:27:42.220Z,100821.03
2022-10-16T04:30:11.687Z,100805.41
2022-10-16T04:32:38.017Z,100819.34
2022-10-16T04:35:04.763Z,100805.72
2022-10-16T04:37:31.203Z,100825.03
2022-10-16T04:39:57.589Z,100834.63
2022-10-16T04:42:26.677Z,100836.78
2022-10-16T04:44:53.031Z,100841.81
2022-10-16T04:47:19.415Z,100848.81
2022-10-16T04:49:45.823Z,100842.97
2022-10-16T04:52:12.177Z,100838.75
2022-10-16T04:54:38.585Z,100830.34
2022-10-16T04:57:05.974Z,100841.63
2022-10-16T04:59:32.640Z,100834.72
2022-10-16T05:01:59.016Z,100837.56
2022-10-16T05:04:25.431Z,100842.09
2022-10-16T05:06:51.884Z,100833.72
2022-10-16T05:09:18.560Z,100838.09
2022-10-16T05:11:44.927Z,100861.22
2022-10-16T05:16:42.896Z,100857.19
2022-10-16T05:19:28.579Z,100863.25
2022-10-16T05:21:55.665Z,100857.69
2022-10-16T05:24:22.143Z,100858.53
2022-10-16T05:26:48.613Z,100845.78
2022-10-16T05:29:15.458Z,100857.69
2022-10-16T05:31:41.892Z,100860.56
2022-10-16T05:34:10.234Z,100874.97
2022-10-16T05:36:36.810Z,100877.16
2022-10-16T05:39:03.801Z,100887.41
2022-10-16T05:41:30.309Z,100874.31
2022-10-16T05:43:56.691Z,100882.69
2022-10-16T05:46:23.124Z,100871.47
2022-10-16T05:48:52.234Z,100865.41
2022-10-16T05:51:18.577Z,100868.94
2022-10-16T05:53:45.198Z,100859.03
2022-10-16T05:56:13.626Z,100866.94
2022-10-16T05:58:42.006Z,100883.03
2022-10-16T06:01:17.807Z,100882.03
2022-10-16T06:03:44.339Z,100873.47
2022-10-16T06:06:16.333Z,100873.50
2022-10-16T06:08:43.892Z,100865.41
2022-10-16T06:11:13.916Z,100893.44
2022-10-16T06:13:43.285Z,100879.38
2022-10-16T06:16:11.751Z,100864.75
2022-10-16T06:18:38.207Z,100889.75
2022-10-16T06:21:15.896Z,100889.63
2022-10-16T06:23:42.619Z,100885.75
2022-10-16T06:26:11.137Z,100882.72
2022-10-16T06:28:38.081Z,100884.22
2022-10-16T06:31:08.246Z,100884.56
2022-10-16T06:33:35.405Z,100886.25
2022-10-16T06:36:09.955Z,100889.94
2022-10-16T06:38:36.523Z,100890.28
2022-10-16T06:41:03.836Z,100904.69
2022-10-16T06:43:33.484Z,100925.91
2022-10-16T06:46:01.338Z,100928.78
2022-10-16T06:48:28.847Z,100913.50
2022-10-16T06:53:39.777Z,100918.53
2022-10-16T06:56:21.330Z,100922.75
2022-10-16T06:58:48.798Z,100932.84
2022-10-16T07:01:17.178Z,100930.00
2022-10-16T07:03:45.149Z,100928.31
2022-10-16T07:06:13.646Z,100933.84
2022-10-16T07:08:41.857Z,100939.53
2022-10-16T07:11:12.500Z,100934.19
2022-10-16T07:13:40.827Z,100949.13
2022-10-16T07:16:13.036Z,100944.56
2022-10-16T07:18:43.873Z,100937.00
2022-10-16T07:21:13.818Z,100960.53
2022-10-16T07:23:40.909Z,100947.75
2022-10-16T07:26:08.358Z,100943.88
2022-10-16T07:28:35.265Z,100964.72
2022-10-16T07:31:07.974Z,100968.38
2022-10-16T07:33:35.870Z,100977.97
2022-10-16T07:36:02.855Z,100970.25
2022-10-16T07:38:29.300Z,100964.47
2022-10-16T07:41:00.064Z,100978.44
2022-10-16T07:43:27.316Z,100981.47
2022-10-16T07:45:54.189Z,100978.91
2022-10-16T07:48:20.904Z,100996.53
2022-10-16T07:50:47.291Z,100978.53
2022-10-16T07:53:14.432Z,100976.69
2022-10-16T07:55:40.833Z,100995.47
2022-10-16T07:58:07.860Z,100983.88
2022-10-16T08:00:34.587Z,101005.69
2022-10-16T08:03:01.273Z,101005.53
2022-10-16T08:05:29.308Z,100991.28
2022-10-16T08:07:57.003Z,101005.69
2022-10-16T08:10:26.013Z,101020.53
2022-10-16T08:12:53.471Z,101008.44
2022-10-16T08:15:20.638Z,101022.84
2022-10-16T08:18:03.833Z,101022.34
2022-10-16T08:20:31.405Z,101016.47
2022-10-16T08:22:57.939Z,101008.03
2022-10-16T08:25:25.159Z,101023.34
2022-10-16T08:27:51.895Z,101023.13
2022-10-16T08:30:21.101Z,101026.47
2022-10-16T08:32:47.734Z,101021.44
2022-10-16T08:35:15.817Z,101012.47
2022-10-16T08:37:43.126Z,101025.53
2022-10-16T08:43:15.951Z,101027.41
2022-10-16T08:46:07.338Z,101017.81
2022-10-16T08:48:54.064Z,101014.16
2022-10-16T08:51:24.836Z,101028.63
2022-10-16T08:53:59.491Z,101035.25
2022-10-16T08:56:26.908Z,101035.34
2022-10-16T08:58:58.118Z,101047.50
2022-10-16T09:01:40.973Z,101052.44
2022-10-16T09:04:32.021Z,101061.88
2022-10-16T09:07:12.340Z,101058.41
2022-10-16T09:09:58.384Z,101063.63
2022-10-16T09:12:43.513Z,101059.63
2022-10-16T09:15:39.876Z,101075.38
2022-10-16T09:18:16.327Z,101068.28
2022-10-16T09:21:00.129Z,101082.28
2022-10-16T09:23:28.603Z,101090.28
2022-10-16T09:25:56.808Z,101094.53
2022-10-16T09:28:23.270Z,101094.81
2022-10-16T09:30:50.766Z,101090.53
2022-10-16T09:33:20.419Z,101086.50
2022-10-16T09:35:53.454Z,101082.44
2022-10-16T09:38:25.914Z,101080.28
2022-10-16T09:40:58.917Z,101075.19
2022-10-16T09:43:34.062Z,101090.38
2022-10-16T09:46:30.984Z,101082.44
2022-10-16T09:49:22.253Z,101086.50
2022-10-16T09:51:49.026Z,101084.16
2022-10-16T09:54:17.901Z,101104.75
2022-10-16T09:56:47.263Z,101105.25
2022-10-16T09:59:16.228Z,101107.63
2022-10-16T10:01:47.345Z,101108.97
2022-10-16T10:04:14.102Z,101127.38
2022-10-16T10:06:49.198Z,101119.09
2022-10-16T10:09:25.047Z,101127.06
2022-10-16T10:11:56.980Z,101122.50
2022-10-16T10:14:26.971Z,101115.69
2022-10-16T10:17:03.295Z,101108.78
2022-10-16T10:19:32.739Z,101121.94
2022-10-16T10:21:59.642Z,101116.16
2022-10-16T10:24:26.001Z,101127.44
2022-10-16T10:26:58.050Z,101122.84
2022-10-16T10:29:34.782Z,101106.75
2022-10-16T10:32:24.755Z,101128.28
2022-10-16T10:35:07.527Z,101115.34
2022-10-16T10:38:10.311Z,101137.28
2022-10-16T10:40:39.472Z,101145.00
2022-10-16T10:43:20.624Z,101130.81
2022-10-16T10:45:55.871Z,101141.63
2022-10-16T10:48:44.851Z,101143.13
2022-10-16T10:51:21.346Z,101147.94
2022-10-16T10:54:07.078Z,101151.69
2022-10-16T10:56:49.415Z,101141.25
2022-10-16T10:59:33.712Z,101146.69
2022-10-16T11:02:02.626Z,101143.78
2022-10-16T11:04:31.878Z,101145.84
2022-10-16T11:07:03.170Z,101151.09
2022-10-16T11:09:35.818Z,101166.56
2022-10-16T11:12:19.333Z,101162.22
2022-10-16T11:15:02.637Z,101169.09
2022-10-16T11:17:41.014Z,101178.91
2022-10-16T11:23:06.420Z,101166.31
2022-10-16T11:25:34.137Z,101179.47
2022-10-16T11:28:17.451Z,101175.44
2022-10-16T11:31:27.282Z,101188.44
2022-10-16T11:34:22.922Z,101186.53
2022-10-16T11:37:02.423Z,101178.66
2022-10-16T11:39:30.896Z,101197.25
2022-10-16T11:42:12.322Z,101201.88
2022-10-16T11:44:57.385Z,101199.38
2022-10-16T11:48:00.836Z,101192.03
2022-10-16T11:50:57.724Z,101202.03
2022-10-16T11:53:29.760Z,101188.06
2022-10-16T11:55:56.184Z,101197.84
2022-10-16T11:58:40.084Z,101201.34
2022-10-16T12:01:28.256Z,101199.69
2022-10-16T12:04:35.575Z,101221.59
2022-10-16T12:07:08.323Z,101227.94
2022-10-16T12:09:39.441Z,101210.56
2022-10-16T12:12:06.306Z,101214.13
2022-10-16T12:15:03.896Z,101236.53
2022-10-16T12:17:38.011Z,101232.75
2022-10-16T12:20:13.422Z,101222.72
2022-10-16T12:22:55.785Z,101245.75
2022-10-16T12:25:24.715Z,101249.09
2022-10-16T12:27:59.949Z,101241.31
2022-10-16T12:30:31.045Z,101260.19
2022-10-16T12:33:20.761Z,101245.09
2022-10-16T12:35:47.651Z,101253.69
2022-10-16T12:38:19.678Z,101253.31
2022-10-16T12:40:55.938Z,101251.06
2022-10-16T12:43:26.119Z,101268.41
2022-10-16T12:46:10.825Z,101270.94
2022-10-16T12:48:49.347Z,101271.56
2022-10-16T12:51:28.443Z,101281.34
2022-10-16T12:54:05.407Z,101276.47
2022-10-16T12:56:50.303Z,101282.72
2022-10-16T12:59:30.435Z,101295.63
2022-10-16T13:02:08.563Z,101289.44
2022-10-16T13:04:54.115Z,101286.28
2022-10-16T13:07:52.742Z,101290.97
2022-10-16T13:10:29.486Z,101289.53
2022-10-16T13:13:26.177Z,101293.94
2022-10-16T13:15:59.679Z,101303.97
2022-10-16T13:18:53.832Z,101302.53
2022-10-16T13:21:48.949Z,101304.63
2022-10-16T13:24:21.382Z,101318.44
2022-10-16T13:27:02.398Z,101325.28
2022-10-16T13:29:33.440Z,101319.41
2022-10-16T13:32:02.626Z,101327.13
2022-10-16T13:34:29.129Z,101323.13
2022-10-16T13:36:55.850Z,101324.59
2022-10-16T13:39:25.202Z,101340.94
2022-10-16T13:42:15.279Z,101328.56
2022-10-16T13:44:44.641Z,101339.47
2022-10-16T13:47:23.059Z,101337.78
2022-10-16T13:50:04.360Z,101349.72
2022-10-16T13:52:30.869Z,101360.63
2022-10-16T13:55:00.942Z,101359.59
2022-10-16T13:57:29.086Z,101343.72
2022-10-16T13:59:56.123Z,101366.72
2022-10-16T14:02:27.915Z,101351.63
2022-10-16T14:04:55.872Z,101366.31
2022-10-16T14:07:27.526Z,101369.06
2022-10-16T14:09:55.149Z,101374.28
2022-10-16T14:12:25.580Z,101380.16
2022-10-16T14:14:56.416Z,101398.16
2022-10-16T14:17:26.922Z,101394.44
2022-10-16T14:19:59.747Z,101384.81
2022-10-16T14:23:03.330Z,101393.81
2022-10-16T14:25:32.353Z,101382.44
2022-10-16T14:30:29.365Z,101409.06
2022-10-16T14:33:02.147Z,101422.22
2022-10-16T14:35:30.152Z,101403.13
2022-10-16T14:37:57.830Z,101417.78
2022-10-16T14:40:27.143Z,101415.47
2022-10-16T14:42:54.638Z,101412.13
2022-10-16T14:45:24.692Z,101415.47
2022-10-16T14:47:53.026Z,101417.63
2022-10-16T14:50:19.570Z,101427.19
2022-10-16T14:52:46.049Z,101431.34
2022-10-16T14:55:12.652Z,101417.56
2022-10-16T14:57:40.281Z,101427.38
2022-10-16T15:00:20.466Z,101434.47
2022-10-16T15:02:47.880Z,101439.03
2022-10-16T15:05:16.617Z,101454.03
2022-10-16T15:07:43.238Z,101445.31
2022-10-16T15:10:10.420Z,101448.56
2022-10-16T15:12:36.854Z,101429.00
2022-10-16T15:15:22.465Z,101445.75
2022-10-16T15:17:49.078Z,101454.03
2022-10-16T15:20:15.557Z,101447.72
2022-10-16T15:22:42.085Z,101455.03
2022-10-16T15:25:28.508Z,101441.59
2022-10-16T15:27:54.902Z,101457.44
2022-10-16T15:30:21.411Z,101440.59
2022-10-16T15:32:47.870Z,101461.44
2022-10-16T15:35:14.259Z,101455.44
2022-10-16T15:37:40.699Z,101464.69
2022-10-16T15:40:07.801Z,101473.44
2022-10-16T15:42:34.229Z,101472.31
2022-10-16T15:45:00.616Z,101483.56
2022-10-16T15:47:27.191Z,101463.16
2022-10-16T15:49:53.600Z,101491.81
2022-10-16T15:52:19.980Z,101486.94
2022-10-16T15:54:50.505Z,101488.91
2022-10-16T15:57:20.090Z,101488.63
2022-10-16T15:59:46.585Z,101483.75
2022-10-16T16:02:13.081Z,101503.59
2022-10-16T16:04:43.870Z,101502.03
2022-10-16T16:07:10.972Z,101484.41
2022-10-16T16:09:37.434Z,101496.25
2022-10-16T16:12:04.638Z,101501.75
2022-10-16T16:14:31.048Z,101492.56
2022-10-16T16:16:58.204Z,101501.03
2022-10-16T16:19:24.574Z,101495.16
2022-10-16T16:21:51.432Z,101504.06
2022-10-16T16:24:17.864Z,101514.88
2022-10-16T16:26:44.486Z,101514.75
2022-10-16T16:29:14.070Z,101524.19
2022-10-16T16:31:40.957Z,101535.09
2022-10-16T16:34:07.721Z,101530.19
2022-10-16T16:36:34.979Z,101542.31
2022-10-16T16:39:02.383Z,101539.16
2022-10-16T16:41:31.012Z,101544.00
2022-10-16T16:44:06.470Z,101551.22
2022-10-16T16:46:34.413Z,101541.53
2022-10-16T16:49:01.935Z,101546.38
2022-10-16T16:51:28.394Z,101568.22
2022-10-16T16:53:55.892Z,101578.91
2022-10-16T16:56:23.971Z,101584.94
2022-10-16T16:58:52.153Z,101583.19
2022-10-16T17:01:20.703Z,101586.81
2022-10-16T17:03:50.659Z,101589.66
2022-10-16T17:06:20.472Z,101587.63
2022-10-16T17:08:48.082Z,101595.13
2022-10-16T17:11:16.794Z,101600.41
2022-10-16T17:13:43.180Z,101607.78
2022-10-16T17:16:09.898Z,101611.13
2022-10-16T17:18:36.631Z,101615.09
2022-10-16T17:21:06.670Z,101611.03
2022-10-16T17:23:34.799Z,101620.72
2022-10-16T17:26:12.834Z,101619.31
2022-10-16T17:28:39.441Z,101620.94
2022-10-16T17:31:15.127Z,101626.06
2022-10-16T17:33:42.428Z,101621.34
2022-10-16T17:36:09.324Z,101624.63
2022-10-16T17:38:35.998Z,101641.94
2022-10-16T17:41:14.075Z,101650.72
2022-10-16T17:43:41.024Z,101656.28
2022-10-16T17:46:08.942Z,101660.69
2022-10-16T17:48:40.636Z,101660.03
2022-10-16T17:51:09.090Z,101664.94
2022-10-16T17:53:36.728Z,101672.34
2022-10-16T17:56:07.918Z,101681.66
2022-10-16T17:58:35.373Z,101689.91
2022-10-16T18:01:02.627Z,101680.16
2022-10-16T18:03:29.139Z,101673.41
2022-10-16T18:05:55.966Z,101684.28
2022-10-16T18:08:26.392Z,101686.66
2022-10-16T18:10:55.188Z,101682.88
2022-10-16T18:13:21.624Z,101681.88
2022-10-16T18:15:47.994Z,101673.25
2022-10-16T18:18:14.590Z,101673.53
2022-10-16T18:20:40.974Z,101679.34
2022-10-16T18:23:07.489Z,101684.97
2022-10-16T18:25:33.916Z,101696.81
2022-10-16T18:28:00.285Z,101697.47
2022-10-16T18:30:26.974Z,101711.28
2022-10-16T18:32:53.642Z,101700.09
2022-10-16T18:35:20.001Z,101705.59
2022-10-16T18:37:46.363Z,101721.66
2022-10-16T18:40:12.747Z,101721.22
2022-10-16T18:42:39.247Z,101725.13
2022-10-16T18:45:06.093Z,101724.72
2022-10-16T18:47:32.481Z,101725.25
2022-10-16T18:49:58.888Z,101743.13
2022-10-16T18:52:26.913Z,101736.22
2022-10-16T18:54:56.529Z,101723.81
2022-10-16T18:57:22.922Z,101732.22
2022-10-16T18:59:49.413Z,101732.09
2022-10-16T19:02:15.860Z,101731.41
2022-10-16T19:04:42.307Z,101713.59
2022-10-16T19:07:08.762Z,101729.25
2022-10-16T19:09:35.129Z,101741.53
2022-10-16T19:12:03.257Z,101747.16
2022-10-16T19:14:30.150Z,101737.53
2022-10-16T19:16:56.556Z,101719.88
2022-10-16T19:19:23.754Z,101732.03
2022-10-16T19:21:56.058Z,101718.44
2022-10-16T19:24:22.520Z,101734.25
2022-10-16T19:26:48.918Z,101732.22
2022-10-16T19:29:15.423Z,101737.84
2022-10-16T19:31:42.119Z,101752.06
2022-10-16T19:34:09.935Z,101755.00
2022-10-16T19:36:38.385Z,101754.41
2022-10-16T19:39:07.890Z,101761.72
2022-10-16T19:41:36.905Z,101762.69
2022-10-16T19:44:05.744Z,101774.66
2022-10-16T19:46:33.583Z,101775.34
2022-10-16T19:49:03.687Z,101761.78
2022-10-16T19:51:31.146Z,101770.41
2022-10-16T19:53:59.910Z,101783.53
2022-10-16T19:56:28.467Z,101784.34
2022-10-16T19:58:56.449Z,101782.69
2022-10-16T20:01:23.714Z,101780.00
2022-10-16T20:03:50.468Z,101782.53
2022-10-16T20:06:18.895Z,101777.34
2022-10-16T20:08:47.911Z,101784.34
2022-10-16T20:11:24.134Z,101770.28
2022-10-16T20:13:51.329Z,101772.00
2022-10-16T20:16:19.204Z,101779.16
2022-10-16T20:18:47.729Z,101783.38
2022-10-16T20:21:17.145Z,101785.38
2022-10-16T20:23:44.601Z,101783.78
2022-10-16T20:26:11.532Z,101791.28
2022-10-16T20:28:40.547Z,101793.84
2022-10-16T20:31:11.079Z,101801.13
2022-10-16T20:33:37.978Z,101794.63
2022-10-16T20:36:05.100Z,101790.56
2022-10-16T20:38:31.518Z,101803.56
2022-10-16T20:41:03.974Z,101798.34
2022-10-16T20:43:30.534Z,101796.38
2022-10-16T20:46:01.687Z,101794.09
2022-10-16T20:48:28.209Z,101795.78
2022-10-16T20:50:54.692Z,101818.53
2022-10-16T20:53:21.949Z,101822.03
2022-10-16T20:55:48.612Z,101811.34
2022-10-16T20:58:14.956Z,101807.81
2022-10-16T21:00:41.346Z,101792.66
2022-10-16T21:03:09.857Z,101807.94
2022-10-16T21:05:41.016Z,101815.72
2022-10-16T21:08:07.519Z,101813.03
2022-10-16T21:10:34.080Z,101819.84
2022-10-16T21:13:00.452Z,101831.66
2022-10-16T21:15:30.165Z,101833.22
2022-10-16T21:17:56.779Z,101838.81
2022-10-16T21:20:23.210Z,101842.94
2022-10-16T21:22:49.564Z,101836.41
2022-10-16T21:25:16.053Z,101849.41
2022-10-16T21:27:43.439Z,101842.72
2022-10-16T21:30:10.179Z,101855.59
2022-10-16T21:32:38.031Z,101835.31
2022-10-16T21:35:05.979Z,101851.84
2022-10-16T21:37:33.124Z,101852.22
2022-10-16T21:39:59.686Z,101862.66
2022-10-16T21:42:26.453Z,101850.97
2022-10-16T21:44:52.969Z,101836.16
2022-10-16T21:47:19.438Z,101843.66
2022-10-16T21:49:45.787Z,101826.16
2022-10-16T21:52:12.209Z,101845.47
2022-10-16T21:54:38.864Z,101848.44
2022-10-16T21:57:06.856Z,101848.03
2022-10-16T21:59:33.226Z,101852.28
2022-10-16T22:02:02.503Z,101844.63
2022-10-16T22:04:28.880Z,101853.00
2022-10-16T22:06:55.247Z,101852.28
2022-10-16T22:09:21.623Z,101853.84
2022-10-16T22:11:48.305Z,101855.44
2022-10-16T22:14:17.887Z,101858.56
2022-10-16T22:16:45.117Z,101858.41
2022-10-16T22:19:13.277Z,101852.94
2022-10-16T22:21:41.450Z,101846.84
2022-10-16T22:24:08.628Z,101858.88
2022-10-16T22:26:36.424Z,101839.69
2022-10-16T22:29:03.472Z,101844.53
2022-10-16T22:31:29.994Z,101840.75
2022-10-16T22:34:01.413Z,101829.19
2022-10-16T22:36:28.527Z,101832.31
2022-10-16T22:38:55.432Z,101821.31
2022-10-16T22:41:22.599Z,101820.34
2022-10-16T22:43:49.647Z,101811.59
2022-10-16T22:46:18.677Z,101817.53
2022-10-16T22:48:45.354Z,101814.59
2022-10-16T22:51:16.742Z,101828.59
2022-10-16T22:53:45.117Z,101832.69
2022-10-16T22:56:12.055Z,101843.25
2022-10-16T22:58:39.058Z,101838.50
2022-10-16T23:01:20.991Z,101840.66
2022-10-16T23:03:47.407Z,101839.69
2022-10-16T23:06:14.125Z,101832.38
2022-10-16T23:08:40.773Z,101822.91
2022-10-16T23:11:09.126Z,101820.69
2022-10-16T23:13:37.660Z,101806.72
2022-10-16T23:16:05.622Z,101799.13
2022-10-16T23:18:34.473Z,101800.31
2022-10-16T23:21:08.055Z,101809.38
2022-10-16T23:23:36.113Z,101815.31
2022-10-16T23:26:03.854Z,101809.66
2022-10-16T23:28:32.190Z,101810.25
2022-10-16T23:30:58.792Z,101805.75
2022-10-16T23:33:25.157Z,101802.53
2022-10-16T23:35:51.688Z,101786.00
2022-10-16T23:38:18.073Z,101786.31
2022-10-16T23:40:44.497Z,101782.47
2022-10-16T23:43:10.959Z,101773.03
2022-10-16T23:45:37.332Z,101766.25
2022-10-16T23:48:03.758Z,101751.59
2022-10-16T23:50:30.708Z,101760.09
2022-10-16T23:52:57.159Z,101752.19
2022-10-16T23:55:23.567Z,101746.69
2022-10-16T23:57:49.972Z,101752.75
